sensor_id;sensor_type;location;lat;lon;timestamp;P1;durP1;ratioP1;P2;durP2;ratioP2
79493;SDS011;68951;53.130;18.104;2023-04-24T00:00:14;14.20;;;8.50;;
79493;SDS011;68951;53.130;18.104;2023-04-24T00:03:02;15.20;;;8.90;;
79493;SDS011;68951;53.130;18.104;2023-04-24T00:05:29;13.30;;;8.30;;
79493;SDS011;68951;53.130;18.104;2023-04-24T00:07:56;12.90;;;7.60;;
79493;SDS011;68951;53.130;18.104;2023-04-24T00:10:23;11.70;;;7.10;;
79493;SDS011;68951;53.130;18.104;2023-04-24T00:12:49;11.90;;;7.70;;
79493;SDS011;68951;53.130;18.104;2023-04-24T00:15:16;9.90;;;7.40;;
79493;SDS011;68951;53.130;18.104;2023-04-24T00:17:43;9.80;;;7.00;;
79493;SDS011;68951;53.130;18.104;2023-04-24T00:20:10;10.20;;;6.90;;
79493;SDS011;68951;53.130;18.104;2023-04-24T00:22:37;10.10;;;6.10;;
79493;SDS011;68951;53.130;18.104;2023-04-24T00:25:04;9.80;;;6.30;;
79493;SDS011;68951;53.130;18.104;2023-04-24T00:27:32;9.80;;;6.70;;
79493;SDS011;68951;53.130;18.104;2023-04-24T00:29:59;9.50;;;6.40;;
79493;SDS011;68951;53.130;18.104;2023-04-24T00:32:26;9.80;;;6.60;;
79493;SDS011;68951;53.130;18.104;2023-04-24T00:34:52;11.50;;;7.20;;
79493;SDS011;68951;53.130;18.104;2023-04-24T00:37:19;11.60;;;6.70;;
79493;SDS011;68951;53.130;18.104;2023-04-24T00:39:47;10.70;;;7.50;;
79493;SDS011;68951;53.130;18.104;2023-04-24T00:42:14;27.60;;;11.90;;
79493;SDS011;68951;53.130;18.104;2023-04-24T00:44:41;41.00;;;16.10;;
79493;SDS011;68951;53.130;18.104;2023-04-24T00:47:08;34.90;;;14.50;;
79493;SDS011;68951;53.130;18.104;2023-04-24T00:49:35;26.50;;;11.20;;
79493;SDS011;68951;53.130;18.104;2023-04-24T00:52:02;21.30;;;9.80;;
79493;SDS011;68951;53.130;18.104;2023-04-24T00:54:36;25.20;;;12.10;;
79493;SDS011;68951;53.130;18.104;2023-04-24T00:57:03;28.30;;;12.40;;
79493;SDS011;68951;53.130;18.104;2023-04-24T00:59:31;23.80;;;11.50;;
79493;SDS011;68951;53.130;18.104;2023-04-24T01:01:58;23.00;;;10.80;;
79493;SDS011;68951;53.130;18.104;2023-04-24T01:04:26;16.10;;;8.30;;
79493;SDS011;68951;53.130;18.104;2023-04-24T01:06:54;15.00;;;9.70;;
79493;SDS011;68951;53.130;18.104;2023-04-24T01:09:25;17.90;;;10.70;;
79493;SDS011;68951;53.130;18.104;2023-04-24T01:11:53;18.00;;;10.00;;
79493;SDS011;68951;53.130;18.104;2023-04-24T01:14:20;18.50;;;10.50;;
79493;SDS011;68951;53.130;18.104;2023-04-24T01:16:47;17.30;;;9.80;;
79493;SDS011;68951;53.130;18.104;2023-04-24T01:19:15;19.70;;;10.90;;
79493;SDS011;68951;53.130;18.104;2023-04-24T01:21:43;21.90;;;11.40;;
79493;SDS011;68951;53.130;18.104;2023-04-24T01:24:13;45.20;;;21.90;;
79493;SDS011;68951;53.130;18.104;2023-04-24T01:26:40;35.90;;;17.50;;
79493;SDS011;68951;53.130;18.104;2023-04-24T01:29:07;29.40;;;15.80;;
79493;SDS011;68951;53.130;18.104;2023-04-24T01:31:34;24.60;;;13.10;;
79493;SDS011;68951;53.130;18.104;2023-04-24T01:34:02;16.50;;;9.70;;
79493;SDS011;68951;53.130;18.104;2023-04-24T01:36:30;13.80;;;8.10;;
79493;SDS011;68951;53.130;18.104;2023-04-24T01:38:58;10.30;;;6.80;;
79493;SDS011;68951;53.130;18.104;2023-04-24T01:41:25;11.00;;;7.10;;
79493;SDS011;68951;53.130;18.104;2023-04-24T01:43:52;10.10;;;7.00;;
79493;SDS011;68951;53.130;18.104;2023-04-24T01:46:20;12.40;;;7.60;;
79493;SDS011;68951;53.130;18.104;2023-04-24T01:48:47;10.00;;;7.40;;
79493;SDS011;68951;53.130;18.104;2023-04-24T01:51:14;10.70;;;6.40;;
79493;SDS011;68951;53.130;18.104;2023-04-24T01:53:41;10.20;;;6.80;;
79493;SDS011;68951;53.130;18.104;2023-04-24T01:56:08;16.10;;;9.40;;
79493;SDS011;68951;53.130;18.104;2023-04-24T01:58:36;18.10;;;11.10;;
79493;SDS011;68951;53.130;18.104;2023-04-24T02:01:03;14.80;;;9.40;;
79493;SDS011;68951;53.130;18.104;2023-04-24T02:03:30;13.80;;;9.60;;
79493;SDS011;68951;53.130;18.104;2023-04-24T02:05:56;12.80;;;9.50;;
79493;SDS011;68951;53.130;18.104;2023-04-24T02:08:23;14.00;;;8.80;;
79493;SDS011;68951;53.130;18.104;2023-04-24T02:10:50;11.70;;;8.00;;
79493;SDS011;68951;53.130;18.104;2023-04-24T02:13:17;15.10;;;8.00;;
79493;SDS011;68951;53.130;18.104;2023-04-24T02:15:44;13.60;;;9.30;;
79493;SDS011;68951;53.130;18.104;2023-04-24T02:18:11;15.60;;;9.00;;
79493;SDS011;68951;53.130;18.104;2023-04-24T02:20:39;15.20;;;9.60;;
79493;SDS011;68951;53.130;18.104;2023-04-24T02:23:06;15.40;;;9.80;;
79493;SDS011;68951;53.130;18.104;2023-04-24T02:25:33;13.20;;;9.00;;
79493;SDS011;68951;53.130;18.104;2023-04-24T02:28:00;12.80;;;8.50;;
79493;SDS011;68951;53.130;18.104;2023-04-24T02:30:27;12.90;;;8.00;;
79493;SDS011;68951;53.130;18.104;2023-04-24T02:32:53;15.90;;;9.60;;
79493;SDS011;68951;53.130;18.104;2023-04-24T02:35:20;14.30;;;9.30;;
79493;SDS011;68951;53.130;18.104;2023-04-24T02:37:47;15.50;;;9.60;;
79493;SDS011;68951;53.130;18.104;2023-04-24T02:40:14;14.00;;;9.10;;
79493;SDS011;68951;53.130;18.104;2023-04-24T02:42:41;14.90;;;9.70;;
79493;SDS011;68951;53.130;18.104;2023-04-24T02:45:08;16.10;;;10.10;;
79493;SDS011;68951;53.130;18.104;2023-04-24T02:47:35;14.30;;;9.50;;
79493;SDS011;68951;53.130;18.104;2023-04-24T02:50:02;16.90;;;11.30;;
79493;SDS011;68951;53.130;18.104;2023-04-24T02:52:30;14.60;;;10.50;;
79493;SDS011;68951;53.130;18.104;2023-04-24T02:54:57;17.20;;;11.10;;
79493;SDS011;68951;53.130;18.104;2023-04-24T02:57:24;18.20;;;11.00;;
79493;SDS011;68951;53.130;18.104;2023-04-24T02:59:50;15.30;;;10.00;;
79493;SDS011;68951;53.130;18.104;2023-04-24T03:02:17;15.90;;;10.10;;
79493;SDS011;68951;53.130;18.104;2023-04-24T03:04:44;17.40;;;10.10;;
79493;SDS011;68951;53.130;18.104;2023-04-24T03:07:11;18.40;;;11.90;;
79493;SDS011;68951;53.130;18.104;2023-04-24T03:09:38;16.90;;;11.10;;
79493;SDS011;68951;53.130;18.104;2023-04-24T03:12:05;17.20;;;11.10;;
79493;SDS011;68951;53.130;18.104;2023-04-24T03:14:32;17.10;;;11.10;;
79493;SDS011;68951;53.130;18.104;2023-04-24T03:16:59;16.60;;;11.10;;
79493;SDS011;68951;53.130;18.104;2023-04-24T03:19:26;17.20;;;10.80;;
79493;SDS011;68951;53.130;18.104;2023-04-24T03:21:53;17.90;;;11.30;;
79493;SDS011;68951;53.130;18.104;2023-04-24T03:24:20;17.20;;;11.60;;
79493;SDS011;68951;53.130;18.104;2023-04-24T03:26:47;18.60;;;11.70;;
79493;SDS011;68951;53.130;18.104;2023-04-24T03:29:13;17.00;;;11.80;;
79493;SDS011;68951;53.130;18.104;2023-04-24T03:31:40;18.10;;;11.90;;
79493;SDS011;68951;53.130;18.104;2023-04-24T03:34:07;16.80;;;10.60;;
79493;SDS011;68951;53.130;18.104;2023-04-24T03:36:34;16.00;;;10.70;;
79493;SDS011;68951;53.130;18.104;2023-04-24T03:39:00;14.60;;;9.40;;
79493;SDS011;68951;53.130;18.104;2023-04-24T03:41:27;18.20;;;11.60;;
79493;SDS011;68951;53.130;18.104;2023-04-24T03:43:54;18.20;;;11.90;;
79493;SDS011;68951;53.130;18.104;2023-04-24T03:46:21;18.00;;;11.70;;
79493;SDS011;68951;53.130;18.104;2023-04-24T03:48:48;17.70;;;12.40;;
79493;SDS011;68951;53.130;18.104;2023-04-24T03:51:15;17.10;;;11.50;;
79493;SDS011;68951;53.130;18.104;2023-04-24T03:53:42;19.20;;;12.20;;
79493;SDS011;68951;53.130;18.104;2023-04-24T03:56:08;17.20;;;12.10;;
79493;SDS011;68951;53.130;18.104;2023-04-24T03:58:35;19.30;;;12.50;;
79493;SDS011;68951;53.130;18.104;2023-04-24T04:01:02;16.20;;;11.90;;
79493;SDS011;68951;53.130;18.104;2023-04-24T04:03:29;19.30;;;11.60;;
79493;SDS011;68951;53.130;18.104;2023-04-24T04:05:56;17.30;;;11.10;;
79493;SDS011;68951;53.130;18.104;2023-04-24T04:08:22;19.40;;;12.80;;
79493;SDS011;68951;53.130;18.104;2023-04-24T04:10:49;19.70;;;13.40;;
79493;SDS011;68951;53.130;18.104;2023-04-24T04:13:16;23.50;;;16.10;;
79493;SDS011;68951;53.130;18.104;2023-04-24T04:15:43;20.60;;;14.30;;
79493;SDS011;68951;53.130;18.104;2023-04-24T04:18:10;23.70;;;14.00;;
79493;SDS011;68951;53.130;18.104;2023-04-24T04:20:37;20.50;;;13.00;;
79493;SDS011;68951;53.130;18.104;2023-04-24T04:23:03;17.50;;;11.90;;
79493;SDS011;68951;53.130;18.104;2023-04-24T04:25:30;19.80;;;12.60;;
79493;SDS011;68951;53.130;18.104;2023-04-24T04:27:57;19.20;;;12.40;;
79493;SDS011;68951;53.130;18.104;2023-04-24T04:30:25;18.10;;;12.90;;
79493;SDS011;68951;53.130;18.104;2023-04-24T04:32:52;22.40;;;12.90;;
79493;SDS011;68951;53.130;18.104;2023-04-24T04:35:19;18.70;;;12.90;;
79493;SDS011;68951;53.130;18.104;2023-04-24T04:37:46;18.90;;;12.50;;
79493;SDS011;68951;53.130;18.104;2023-04-24T04:40:12;17.10;;;11.40;;
79493;SDS011;68951;53.130;18.104;2023-04-24T04:42:39;16.90;;;10.80;;
79493;SDS011;68951;53.130;18.104;2023-04-24T04:45:07;21.30;;;11.70;;
79493;SDS011;68951;53.130;18.104;2023-04-24T04:47:35;22.70;;;12.00;;
79493;SDS011;68951;53.130;18.104;2023-04-24T04:50:02;18.20;;;12.30;;
79493;SDS011;68951;53.130;18.104;2023-04-24T04:52:30;16.50;;;12.00;;
79493;SDS011;68951;53.130;18.104;2023-04-24T04:54:57;17.10;;;12.00;;
79493;SDS011;68951;53.130;18.104;2023-04-24T04:57:24;17.00;;;11.80;;
79493;SDS011;68951;53.130;18.104;2023-04-24T04:59:51;18.10;;;11.30;;
79493;SDS011;68951;53.130;18.104;2023-04-24T05:02:18;20.20;;;11.20;;
79493;SDS011;68951;53.130;18.104;2023-04-24T05:04:44;16.10;;;11.70;;
79493;SDS011;68951;53.130;18.104;2023-04-24T05:07:11;19.90;;;12.90;;
79493;SDS011;68951;53.130;18.104;2023-04-24T05:09:38;18.20;;;12.70;;
79493;SDS011;68951;53.130;18.104;2023-04-24T05:12:05;17.50;;;12.30;;
79493;SDS011;68951;53.130;18.104;2023-04-24T05:14:32;17.30;;;11.50;;
79493;SDS011;68951;53.130;18.104;2023-04-24T05:16:58;17.90;;;11.60;;
79493;SDS011;68951;53.130;18.104;2023-04-24T05:19:26;16.50;;;10.90;;
79493;SDS011;68951;53.130;18.104;2023-04-24T05:21:53;18.90;;;11.90;;
79493;SDS011;68951;53.130;18.104;2023-04-24T05:24:20;17.90;;;11.30;;
79493;SDS011;68951;53.130;18.104;2023-04-24T05:26:47;17.00;;;12.40;;
79493;SDS011;68951;53.130;18.104;2023-04-24T05:29:14;17.70;;;12.00;;
79493;SDS011;68951;53.130;18.104;2023-04-24T05:31:41;19.30;;;11.60;;
79493;SDS011;68951;53.130;18.104;2023-04-24T05:34:07;17.70;;;11.70;;
79493;SDS011;68951;53.130;18.104;2023-04-24T05:36:34;18.60;;;11.40;;
79493;SDS011;68951;53.130;18.104;2023-04-24T05:39:01;15.20;;;10.20;;
79493;SDS011;68951;53.130;18.104;2023-04-24T05:41:28;16.80;;;11.50;;
79493;SDS011;68951;53.130;18.104;2023-04-24T05:43:55;17.20;;;11.80;;
79493;SDS011;68951;53.130;18.104;2023-04-24T05:46:21;21.80;;;13.80;;
79493;SDS011;68951;53.130;18.104;2023-04-24T05:48:48;18.80;;;13.80;;
79493;SDS011;68951;53.130;18.104;2023-04-24T05:51:16;19.30;;;14.00;;
79493;SDS011;68951;53.130;18.104;2023-04-24T05:53:49;17.60;;;12.20;;
79493;SDS011;68951;53.130;18.104;2023-04-24T05:56:16;18.20;;;12.00;;
79493;SDS011;68951;53.130;18.104;2023-04-24T05:58:45;17.90;;;12.10;;
79493;SDS011;68951;53.130;18.104;2023-04-24T06:01:13;17.90;;;11.70;;
79493;SDS011;68951;53.130;18.104;2023-04-24T06:03:41;21.30;;;12.10;;
79493;SDS011;68951;53.130;18.104;2023-04-24T06:06:08;21.60;;;11.80;;
79493;SDS011;68951;53.130;18.104;2023-04-24T06:08:35;19.30;;;10.90;;
79493;SDS011;68951;53.130;18.104;2023-04-24T06:11:02;24.70;;;13.10;;
79493;SDS011;68951;53.130;18.104;2023-04-24T06:13:29;19.40;;;12.60;;
79493;SDS011;68951;53.130;18.104;2023-04-24T06:15:56;18.50;;;12.60;;
79493;SDS011;68951;53.130;18.104;2023-04-24T06:18:23;16.70;;;11.20;;
79493;SDS011;68951;53.130;18.104;2023-04-24T06:20:50;16.50;;;10.80;;
79493;SDS011;68951;53.130;18.104;2023-04-24T06:23:16;16.80;;;10.70;;
79493;SDS011;68951;53.130;18.104;2023-04-24T06:25:43;15.40;;;10.60;;
79493;SDS011;68951;53.130;18.104;2023-04-24T06:28:10;14.00;;;9.40;;
79493;SDS011;68951;53.130;18.104;2023-04-24T06:30:37;13.90;;;9.90;;
79493;SDS011;68951;53.130;18.104;2023-04-24T06:33:04;17.10;;;9.80;;
79493;SDS011;68951;53.130;18.104;2023-04-24T06:35:31;16.90;;;10.00;;
79493;SDS011;68951;53.130;18.104;2023-04-24T06:37:58;16.00;;;11.20;;
79493;SDS011;68951;53.130;18.104;2023-04-24T06:40:24;17.30;;;11.80;;
79493;SDS011;68951;53.130;18.104;2023-04-24T06:42:51;19.80;;;11.70;;
79493;SDS011;68951;53.130;18.104;2023-04-24T06:45:18;18.40;;;11.30;;
79493;SDS011;68951;53.130;18.104;2023-04-24T06:47:47;17.70;;;11.30;;
79493;SDS011;68951;53.130;18.104;2023-04-24T06:50:14;20.80;;;12.10;;
79493;SDS011;68951;53.130;18.104;2023-04-24T06:52:43;19.30;;;10.80;;
79493;SDS011;68951;53.130;18.104;2023-04-24T06:55:11;21.30;;;12.00;;
79493;SDS011;68951;53.130;18.104;2023-04-24T06:57:39;20.50;;;11.70;;
79493;SDS011;68951;53.130;18.104;2023-04-24T07:00:07;20.30;;;11.50;;
79493;SDS011;68951;53.130;18.104;2023-04-24T07:02:36;21.00;;;11.40;;
79493;SDS011;68951;53.130;18.104;2023-04-24T07:05:04;22.70;;;11.40;;
79493;SDS011;68951;53.130;18.104;2023-04-24T07:07:31;20.40;;;11.10;;
79493;SDS011;68951;53.130;18.104;2023-04-24T07:09:58;21.10;;;11.20;;
79493;SDS011;68951;53.130;18.104;2023-04-24T07:12:25;20.00;;;10.80;;
79493;SDS011;68951;53.130;18.104;2023-04-24T07:14:52;17.70;;;9.50;;
79493;SDS011;68951;53.130;18.104;2023-04-24T07:17:18;14.50;;;9.10;;
79493;SDS011;68951;53.130;18.104;2023-04-24T07:19:45;11.80;;;7.20;;
79493;SDS011;68951;53.130;18.104;2023-04-24T07:22:12;14.00;;;7.90;;
79493;SDS011;68951;53.130;18.104;2023-04-24T07:24:46;10.70;;;6.70;;
79493;SDS011;68951;53.130;18.104;2023-04-24T07:27:12;10.80;;;7.30;;
79493;SDS011;68951;53.130;18.104;2023-04-24T07:29:41;13.50;;;7.70;;
79493;SDS011;68951;53.130;18.104;2023-04-24T07:32:08;11.30;;;6.60;;
79493;SDS011;68951;53.130;18.104;2023-04-24T07:34:35;10.20;;;5.90;;
79493;SDS011;68951;53.130;18.104;2023-04-24T07:37:02;10.30;;;5.50;;
79493;SDS011;68951;53.130;18.104;2023-04-24T07:39:29;10.20;;;6.00;;
79493;SDS011;68951;53.130;18.104;2023-04-24T07:41:56;8.80;;;4.80;;
79493;SDS011;68951;53.130;18.104;2023-04-24T07:44:25;10.60;;;5.60;;
79493;SDS011;68951;53.130;18.104;2023-04-24T07:46:52;7.70;;;4.60;;
79493;SDS011;68951;53.130;18.104;2023-04-24T07:49:19;9.10;;;5.10;;
79493;SDS011;68951;53.130;18.104;2023-04-24T07:51:46;10.90;;;6.10;;
79493;SDS011;68951;53.130;18.104;2023-04-24T07:54:13;10.00;;;4.60;;
79493;SDS011;68951;53.130;18.104;2023-04-24T07:56:41;9.90;;;5.50;;
79493;SDS011;68951;53.130;18.104;2023-04-24T07:59:10;11.10;;;5.90;;
79493;SDS011;68951;53.130;18.104;2023-04-24T08:01:37;9.40;;;5.10;;
79493;SDS011;68951;53.130;18.104;2023-04-24T08:04:04;10.90;;;5.90;;
79493;SDS011;68951;53.130;18.104;2023-04-24T08:06:32;9.10;;;5.20;;
79493;SDS011;68951;53.130;18.104;2023-04-24T08:08:59;9.10;;;4.60;;
79493;SDS011;68951;53.130;18.104;2023-04-24T08:11:27;10.60;;;5.30;;
79493;SDS011;68951;53.130;18.104;2023-04-24T08:13:54;8.30;;;4.70;;
79493;SDS011;68951;53.130;18.104;2023-04-24T08:16:21;9.70;;;4.80;;
79493;SDS011;68951;53.130;18.104;2023-04-24T08:18:48;9.10;;;4.40;;
79493;SDS011;68951;53.130;18.104;2023-04-24T08:21:15;7.80;;;3.40;;
79493;SDS011;68951;53.130;18.104;2023-04-24T08:23:44;7.90;;;3.80;;
79493;SDS011;68951;53.130;18.104;2023-04-24T08:26:12;6.50;;;3.70;;
79493;SDS011;68951;53.130;18.104;2023-04-24T08:28:39;7.30;;;4.90;;
79493;SDS011;68951;53.130;18.104;2023-04-24T08:31:06;7.50;;;4.40;;
79493;SDS011;68951;53.130;18.104;2023-04-24T08:33:33;7.20;;;3.60;;
79493;SDS011;68951;53.130;18.104;2023-04-24T08:36:05;7.70;;;4.50;;
79493;SDS011;68951;53.130;18.104;2023-04-24T08:38:32;7.00;;;4.40;;
79493;SDS011;68951;53.130;18.104;2023-04-24T08:41:01;6.30;;;3.50;;
79493;SDS011;68951;53.130;18.104;2023-04-24T08:43:28;6.80;;;3.40;;
79493;SDS011;68951;53.130;18.104;2023-04-24T08:45:56;7.20;;;4.30;;
79493;SDS011;68951;53.130;18.104;2023-04-24T08:48:23;8.50;;;4.60;;
79493;SDS011;68951;53.130;18.104;2023-04-24T08:50:50;9.80;;;4.60;;
79493;SDS011;68951;53.130;18.104;2023-04-24T08:53:18;8.00;;;3.10;;
79493;SDS011;68951;53.130;18.104;2023-04-24T08:55:47;6.50;;;4.00;;
79493;SDS011;68951;53.130;18.104;2023-04-24T08:58:16;7.50;;;3.60;;
79493;SDS011;68951;53.130;18.104;2023-04-24T09:00:43;8.50;;;3.80;;
79493;SDS011;68951;53.130;18.104;2023-04-24T09:03:15;9.00;;;3.30;;
79493;SDS011;68951;53.130;18.104;2023-04-24T09:05:43;9.60;;;4.60;;
79493;SDS011;68951;53.130;18.104;2023-04-24T09:08:18;6.40;;;3.10;;
79493;SDS011;68951;53.130;18.104;2023-04-24T09:10:45;5.60;;;3.10;;
79493;SDS011;68951;53.130;18.104;2023-04-24T09:13:12;6.40;;;3.90;;
79493;SDS011;68951;53.130;18.104;2023-04-24T09:15:40;6.00;;;3.60;;
79493;SDS011;68951;53.130;18.104;2023-04-24T09:18:07;9.50;;;4.30;;
79493;SDS011;68951;53.130;18.104;2023-04-24T09:20:34;7.20;;;4.60;;
79493;SDS011;68951;53.130;18.104;2023-04-24T09:23:21;8.20;;;3.80;;
79493;SDS011;68951;53.130;18.104;2023-04-24T09:25:54;8.40;;;5.00;;
79493;SDS011;68951;53.130;18.104;2023-04-24T09:28:34;9.00;;;4.70;;
79493;SDS011;68951;53.130;18.104;2023-04-24T09:31:03;8.10;;;4.10;;
79493;SDS011;68951;53.130;18.104;2023-04-24T09:33:31;7.00;;;4.70;;
79493;SDS011;68951;53.130;18.104;2023-04-24T09:35:58;10.60;;;4.90;;
79493;SDS011;68951;53.130;18.104;2023-04-24T09:38:36;8.80;;;5.00;;
79493;SDS011;68951;53.130;18.104;2023-04-24T09:41:07;13.60;;;5.50;;
79493;SDS011;68951;53.130;18.104;2023-04-24T09:43:39;7.50;;;4.00;;
79493;SDS011;68951;53.130;18.104;2023-04-24T09:46:07;7.40;;;4.80;;
79493;SDS011;68951;53.130;18.104;2023-04-24T09:48:37;9.00;;;4.50;;
79493;SDS011;68951;53.130;18.104;2023-04-24T09:51:05;8.00;;;4.40;;
79493;SDS011;68951;53.130;18.104;2023-04-24T09:53:38;7.70;;;3.80;;
79493;SDS011;68951;53.130;18.104;2023-04-24T09:56:09;6.40;;;4.00;;
79493;SDS011;68951;53.130;18.104;2023-04-24T09:58:36;5.70;;;3.10;;
79493;SDS011;68951;53.130;18.104;2023-04-24T10:01:04;8.40;;;3.60;;
79493;SDS011;68951;53.130;18.104;2023-04-24T10:03:32;8.40;;;4.50;;
79493;SDS011;68951;53.130;18.104;2023-04-24T10:06:03;9.70;;;4.70;;
79493;SDS011;68951;53.130;18.104;2023-04-24T10:08:40;9.00;;;4.30;;
79493;SDS011;68951;53.130;18.104;2023-04-24T10:11:07;10.10;;;4.50;;
79493;SDS011;68951;53.130;18.104;2023-04-24T10:13:35;8.00;;;4.40;;
79493;SDS011;68951;53.130;18.104;2023-04-24T10:16:03;6.10;;;3.20;;
79493;SDS011;68951;53.130;18.104;2023-04-24T10:18:30;8.00;;;4.40;;
79493;SDS011;68951;53.130;18.104;2023-04-24T10:20:59;9.20;;;5.60;;
79493;SDS011;68951;53.130;18.104;2023-04-24T10:23:27;6.60;;;4.30;;
79493;SDS011;68951;53.130;18.104;2023-04-24T10:25:55;6.00;;;3.60;;
79493;SDS011;68951;53.130;18.104;2023-04-24T10:28:24;8.10;;;4.60;;
79493;SDS011;68951;53.130;18.104;2023-04-24T10:30:54;7.30;;;4.70;;
79493;SDS011;68951;53.130;18.104;2023-04-24T10:33:22;10.00;;;4.70;;
79493;SDS011;68951;53.130;18.104;2023-04-24T10:35:50;7.00;;;3.90;;
79493;SDS011;68951;53.130;18.104;2023-04-24T10:38:25;6.90;;;3.60;;
79493;SDS011;68951;53.130;18.104;2023-04-24T10:41:09;7.60;;;4.80;;
79493;SDS011;68951;53.130;18.104;2023-04-24T10:43:42;7.00;;;3.00;;
79493;SDS011;68951;53.130;18.104;2023-04-24T10:46:10;9.40;;;5.80;;
79493;SDS011;68951;53.130;18.104;2023-04-24T10:48:42;9.10;;;4.20;;
79493;SDS011;68951;53.130;18.104;2023-04-24T10:51:12;8.10;;;4.70;;
79493;SDS011;68951;53.130;18.104;2023-04-24T10:53:40;8.40;;;4.60;;
79493;SDS011;68951;53.130;18.104;2023-04-24T10:56:08;9.60;;;5.50;;
79493;SDS011;68951;53.130;18.104;2023-04-24T10:58:50;9.70;;;5.60;;
79493;SDS011;68951;53.130;18.104;2023-04-24T11:03:59;13.00;;;5.70;;
79493;SDS011;68951;53.130;18.104;2023-04-24T11:06:35;9.90;;;5.10;;
79493;SDS011;68951;53.130;18.104;2023-04-24T11:09:05;9.30;;;5.30;;
79493;SDS011;68951;53.130;18.104;2023-04-24T11:11:35;10.30;;;6.00;;
79493;SDS011;68951;53.130;18.104;2023-04-24T11:14:05;9.50;;;6.40;;
79493;SDS011;68951;53.130;18.104;2023-04-24T11:16:38;11.00;;;6.80;;
79493;SDS011;68951;53.130;18.104;2023-04-24T11:19:20;8.90;;;4.90;;
79493;SDS011;68951;53.130;18.104;2023-04-24T11:24:39;11.80;;;6.80;;
79493;SDS011;68951;53.130;18.104;2023-04-24T11:27:19;10.80;;;6.10;;
79493;SDS011;68951;53.130;18.104;2023-04-24T11:35:01;7.50;;;5.10;;
79493;SDS011;68951;53.130;18.104;2023-04-24T11:37:38;12.40;;;6.50;;
79493;SDS011;68951;53.130;18.104;2023-04-24T11:40:08;8.00;;;5.40;;
79493;SDS011;68951;53.130;18.104;2023-04-24T11:42:39;12.50;;;6.40;;
79493;SDS011;68951;53.130;18.104;2023-04-24T11:45:09;11.40;;;6.70;;
79493;SDS011;68951;53.130;18.104;2023-04-24T11:47:38;12.60;;;6.00;;
79493;SDS011;68951;53.130;18.104;2023-04-24T11:50:08;9.50;;;5.80;;
79493;SDS011;68951;53.130;18.104;2023-04-24T11:52:40;10.30;;;6.50;;
79493;SDS011;68951;53.130;18.104;2023-04-24T11:57:59;9.40;;;6.10;;
79493;SDS011;68951;53.130;18.104;2023-04-24T12:00:29;9.00;;;5.70;;
79493;SDS011;68951;53.130;18.104;2023-04-24T12:03:11;7.70;;;5.00;;
79493;SDS011;68951;53.130;18.104;2023-04-24T12:05:38;9.20;;;5.40;;
79493;SDS011;68951;53.130;18.104;2023-04-24T12:08:06;8.90;;;5.30;;
79493;SDS011;68951;53.130;18.104;2023-04-24T12:10:33;8.40;;;5.10;;
79493;SDS011;68951;53.130;18.104;2023-04-24T12:13:01;8.70;;;4.80;;
79493;SDS011;68951;53.130;18.104;2023-04-24T12:15:28;9.50;;;6.00;;
79493;SDS011;68951;53.130;18.104;2023-04-24T12:17:56;8.20;;;5.60;;
79493;SDS011;68951;53.130;18.104;2023-04-24T12:20:31;9.40;;;5.30;;
79493;SDS011;68951;53.130;18.104;2023-04-24T12:23:00;11.90;;;6.20;;
79493;SDS011;68951;53.130;18.104;2023-04-24T12:25:29;5.40;;;3.40;;
79493;SDS011;68951;53.130;18.104;2023-04-24T12:30:38;6.70;;;4.00;;
79493;SDS011;68951;53.130;18.104;2023-04-24T12:33:07;7.20;;;4.50;;
79493;SDS011;68951;53.130;18.104;2023-04-24T12:35:33;6.40;;;2.90;;
79493;SDS011;68951;53.130;18.104;2023-04-24T12:38:09;7.80;;;3.20;;
79493;SDS011;68951;53.130;18.104;2023-04-24T12:40:40;7.20;;;2.80;;
79493;SDS011;68951;53.130;18.104;2023-04-24T12:43:15;4.80;;;2.80;;
79493;SDS011;68951;53.130;18.104;2023-04-24T12:45:47;6.70;;;3.70;;
79493;SDS011;68951;53.130;18.104;2023-04-24T12:48:14;5.00;;;2.70;;
79493;SDS011;68951;53.130;18.104;2023-04-24T12:50:42;6.40;;;2.90;;
79493;SDS011;68951;53.130;18.104;2023-04-24T12:53:09;6.70;;;3.60;;
79493;SDS011;68951;53.130;18.104;2023-04-24T12:55:37;5.50;;;3.10;;
79493;SDS011;68951;53.130;18.104;2023-04-24T12:58:04;5.80;;;3.10;;
79493;SDS011;68951;53.130;18.104;2023-04-24T13:00:31;3.90;;;1.90;;
79493;SDS011;68951;53.130;18.104;2023-04-24T13:02:58;9.70;;;3.30;;
79493;SDS011;68951;53.130;18.104;2023-04-24T13:05:25;6.40;;;2.80;;
79493;SDS011;68951;53.130;18.104;2023-04-24T13:07:52;5.50;;;2.90;;
79493;SDS011;68951;53.130;18.104;2023-04-24T13:10:19;7.00;;;3.00;;
79493;SDS011;68951;53.130;18.104;2023-04-24T13:12:46;4.90;;;2.30;;
79493;SDS011;68951;53.130;18.104;2023-04-24T13:15:13;5.90;;;3.00;;
79493;SDS011;68951;53.130;18.104;2023-04-24T13:17:40;5.40;;;2.70;;
79493;SDS011;68951;53.130;18.104;2023-04-24T13:20:07;5.90;;;3.10;;
79493;SDS011;68951;53.130;18.104;2023-04-24T13:22:34;5.30;;;3.10;;
79493;SDS011;68951;53.130;18.104;2023-04-24T13:25:02;3.90;;;1.80;;
79493;SDS011;68951;53.130;18.104;2023-04-24T13:27:29;7.00;;;2.90;;
79493;SDS011;68951;53.130;18.104;2023-04-24T13:29:56;5.90;;;3.80;;
79493;SDS011;68951;53.130;18.104;2023-04-24T13:32:23;5.90;;;3.50;;
79493;SDS011;68951;53.130;18.104;2023-04-24T13:34:50;7.90;;;3.80;;
79493;SDS011;68951;53.130;18.104;2023-04-24T13:37:17;5.60;;;3.50;;
79493;SDS011;68951;53.130;18.104;2023-04-24T13:39:44;5.30;;;3.20;;
79493;SDS011;68951;53.130;18.104;2023-04-24T13:42:11;7.80;;;3.60;;
79493;SDS011;68951;53.130;18.104;2023-04-24T13:44:37;7.20;;;4.30;;
79493;SDS011;68951;53.130;18.104;2023-04-24T13:47:04;6.20;;;4.20;;
79493;SDS011;68951;53.130;18.104;2023-04-24T13:49:32;5.20;;;2.70;;
79493;SDS011;68951;53.130;18.104;2023-04-24T13:51:59;5.80;;;3.60;;
79493;SDS011;68951;53.130;18.104;2023-04-24T13:54:26;7.90;;;5.30;;
79493;SDS011;68951;53.130;18.104;2023-04-24T13:56:52;4.70;;;3.00;;
79493;SDS011;68951;53.130;18.104;2023-04-24T13:59:20;7.30;;;5.10;;
79493;SDS011;68951;53.130;18.104;2023-04-24T14:01:47;9.30;;;5.10;;
79493;SDS011;68951;53.130;18.104;2023-04-24T14:04:15;8.50;;;4.60;;
79493;SDS011;68951;53.130;18.104;2023-04-24T14:06:43;8.30;;;5.10;;
79493;SDS011;68951;53.130;18.104;2023-04-24T14:09:10;8.00;;;5.50;;
79493;SDS011;68951;53.130;18.104;2023-04-24T14:11:37;8.80;;;4.80;;
79493;SDS011;68951;53.130;18.104;2023-04-24T14:14:05;6.40;;;4.10;;
79493;SDS011;68951;53.130;18.104;2023-04-24T14:16:32;6.80;;;3.90;;
79493;SDS011;68951;53.130;18.104;2023-04-24T14:18:58;5.30;;;3.10;;
79493;SDS011;68951;53.130;18.104;2023-04-24T14:21:25;5.60;;;3.70;;
79493;SDS011;68951;53.130;18.104;2023-04-24T14:23:52;6.30;;;3.30;;
79493;SDS011;68951;53.130;18.104;2023-04-24T14:26:19;5.90;;;3.20;;
79493;SDS011;68951;53.130;18.104;2023-04-24T14:28:46;5.90;;;3.70;;
79493;SDS011;68951;53.130;18.104;2023-04-24T14:31:13;5.90;;;3.30;;
79493;SDS011;68951;53.130;18.104;2023-04-24T14:33:40;6.00;;;2.60;;
79493;SDS011;68951;53.130;18.104;2023-04-24T14:36:07;5.50;;;3.10;;
79493;SDS011;68951;53.130;18.104;2023-04-24T14:38:34;7.30;;;3.70;;
79493;SDS011;68951;53.130;18.104;2023-04-24T14:41:01;5.10;;;2.90;;
79493;SDS011;68951;53.130;18.104;2023-04-24T14:43:33;6.90;;;3.80;;